createdAt,value
2019-03-08T00:00:03.295Z,21.67
2019-03-08T00:02:32.098Z,20.70
2019-03-08T00:05:00.919Z,20.97
2019-03-08T00:07:29.747Z,22.37
2019-03-08T00:09:58.516Z,21.70
2019-03-08T00:12:27.436Z,21.43
2019-03-08T00:14:56.216Z,21.73
2019-03-08T00:17:25.111Z,22.50
2019-03-08T00:19:53.957Z,21.90
2019-03-08T00:22:22.986Z,22.00
2019-03-08T00:24:51.760Z,22.23
2019-03-08T00:27:20.696Z,21.70
2019-03-08T00:29:49.520Z,22.20
2019-03-08T00:32:18.547Z,22.30
2019-03-08T00:34:47.318Z,21.83
2019-03-08T00:37:16.550Z,21.00
2019-03-08T00:39:45.907Z,22.20
2019-03-08T00:42:15.040Z,21.57
2019-03-08T00:44:43.811Z,21.23
2019-03-08T00:47:12.706Z,21.50
2019-03-08T00:49:42.557Z,20.70
2019-03-08T00:52:12.168Z,21.10
2019-03-08T00:54:40.977Z,21.90
2019-03-08T00:57:09.807Z,21.90
2019-03-08T00:59:38.755Z,21.43
2019-03-08T01:02:07.983Z,22.10
2019-03-08T01:04:36.851Z,21.60
2019-03-08T01:07:05.751Z,22.27
2019-03-08T01:09:34.607Z,22.20
2019-03-08T01:12:16.009Z,22.00
2019-03-08T01:14:44.950Z,22.63
2019-03-08T01:17:13.950Z,21.50
2019-03-08T01:19:44.741Z,21.37
2019-03-08T01:22:13.707Z,21.90
2019-03-08T01:24:42.539Z,21.37
2019-03-08T01:27:11.359Z,22.23
2019-03-08T01:29:40.310Z,21.90
2019-03-08T01:32:09.694Z,21.13
2019-03-08T01:34:38.533Z,21.63
2019-03-08T01:37:07.447Z,21.70
2019-03-08T01:39:37.370Z,21.80
2019-03-08T01:42:06.236Z,22.00
2019-03-08T01:44:35.136Z,21.90
2019-03-08T01:47:04.427Z,21.43
2019-03-08T01:49:33.617Z,21.00
2019-03-08T01:52:03.474Z,21.50
2019-03-08T01:54:32.432Z,22.13
2019-03-08T01:57:01.430Z,21.73
2019-03-08T01:59:31.251Z,21.23
2019-03-08T02:02:00.139Z,21.20
2019-03-08T02:04:29.295Z,22.10
2019-03-08T02:06:58.683Z,21.70
2019-03-08T02:09:27.907Z,22.10
2019-03-08T02:11:56.773Z,22.43
2019-03-08T02:14:25.829Z,23.20
2019-03-08T02:16:54.819Z,22.00
2019-03-08T02:19:23.619Z,22.20
2019-03-08T02:21:52.641Z,22.43
2019-03-08T02:24:21.484Z,21.87
2019-03-08T02:26:50.386Z,22.27
2019-03-08T02:29:19.621Z,21.90
2019-03-08T02:31:48.615Z,22.07
2019-03-08T02:34:17.434Z,22.70
2019-03-08T02:36:46.490Z,21.80
2019-03-08T02:39:15.748Z,21.80
2019-03-08T02:41:45.428Z,21.80
2019-03-08T02:44:14.655Z,21.53
2019-03-08T02:46:43.904Z,20.73
2019-03-08T02:49:12.852Z,21.03
2019-03-08T02:51:41.678Z,20.90
2019-03-08T02:54:10.979Z,21.33
2019-03-08T02:56:40.187Z,22.10
2019-03-08T02:59:09.003Z,21.63
2019-03-08T03:01:37.956Z,21.57
2019-03-08T03:04:06.867Z,21.77
2019-03-08T03:06:35.844Z,21.33
2019-03-08T03:09:06.484Z,21.00
2019-03-08T03:11:35.654Z,21.27
2019-03-08T03:14:04.564Z,22.20
2019-03-08T03:16:33.821Z,21.73
2019-03-08T03:19:03.172Z,20.60
2019-03-08T03:21:32.125Z,22.10
2019-03-08T03:24:01.230Z,21.80
2019-03-08T03:26:30.171Z,22.30
2019-03-08T03:28:59.098Z,21.90
2019-03-08T03:31:27.993Z,21.40
2019-03-08T03:33:56.870Z,20.90
2019-03-08T03:36:32.175Z,21.90
2019-03-08T03:39:20.212Z,20.80
2019-03-08T03:41:49.127Z,21.17
2019-03-08T03:44:19.004Z,20.20
2019-03-08T03:46:47.900Z,20.73
2019-03-08T03:49:17.069Z,20.63
2019-03-08T03:51:45.973Z,20.77
2019-03-08T03:54:15.192Z,20.70
2019-03-08T03:56:44.058Z,21.20
2019-03-08T03:59:12.837Z,20.80
2019-03-08T04:01:44.952Z,21.83
2019-03-08T04:04:13.788Z,20.57
2019-03-08T04:06:42.597Z,20.60
2019-03-08T04:09:12.528Z,21.10
2019-03-08T04:11:41.932Z,20.80
2019-03-08T04:14:11.998Z,20.23
2019-03-08T04:16:40.955Z,19.80
2019-03-08T04:19:09.834Z,20.47
2019-03-08T04:21:38.806Z,21.40
2019-03-08T04:24:07.602Z,20.70
2019-03-08T04:26:36.697Z,20.63
2019-03-08T04:29:05.500Z,20.70
2019-03-08T04:31:35.366Z,21.47
2019-03-08T04:34:04.244Z,20.40
2019-03-08T04:36:33.308Z,21.43
2019-03-08T04:39:02.436Z,21.80
2019-03-08T04:41:31.618Z,21.77
2019-03-08T04:44:00.663Z,21.50
2019-03-08T04:46:29.459Z,20.80
2019-03-08T04:48:58.405Z,21.10
2019-03-08T04:51:27.647Z,21.40
2019-03-08T04:53:56.515Z,21.40
2019-03-08T04:56:25.644Z,20.43
2019-03-08T04:58:54.794Z,20.60
2019-03-08T05:01:23.591Z,20.00
2019-03-08T05:03:52.778Z,20.70
2019-03-08T05:06:21.642Z,21.80
2019-03-08T05:08:50.970Z,22.30
2019-03-08T05:11:19.826Z,20.73
2019-03-08T05:13:48.818Z,21.30
2019-03-08T05:16:17.605Z,20.93
2019-03-08T05:18:46.483Z,21.20
2019-03-08T05:21:15.275Z,21.50
2019-03-08T05:23:44.043Z,20.80
2019-03-08T05:26:12.955Z,22.10
2019-03-08T05:28:42.510Z,22.07
2019-03-08T05:31:11.331Z,20.90
2019-03-08T05:33:40.500Z,20.87
2019-03-08T05:36:09.350Z,22.40
2019-03-08T05:38:38.339Z,20.13
2019-03-08T05:41:07.122Z,20.63
2019-03-08T05:43:36.255Z,21.30
2019-03-08T05:46:05.151Z,21.50
2019-03-08T05:48:34.330Z,21.40
2019-03-08T05:51:03.109Z,21.70
2019-03-08T05:53:32.029Z,21.07
2019-03-08T05:56:00.946Z,21.23
2019-03-08T05:58:29.950Z,21.70
2019-03-08T06:00:58.990Z,20.80
2019-03-08T06:03:27.815Z,21.60
2019-03-08T06:05:56.775Z,22.33
2019-03-08T06:08:25.925Z,22.30
2019-03-08T06:10:54.787Z,22.47
2019-03-08T06:13:23.841Z,22.60
2019-03-08T06:15:52.936Z,23.63
2019-03-08T06:18:22.187Z,22.73
2019-03-08T06:20:51.267Z,22.93
2019-03-08T06:23:20.174Z,22.67
2019-03-08T06:25:48.952Z,22.07
2019-03-08T06:28:19.633Z,22.83
2019-03-08T06:30:48.375Z,22.03
2019-03-08T06:33:17.235Z,22.47
2019-03-08T06:35:46.055Z,22.60
2019-03-08T06:38:14.839Z,23.27
2019-03-08T06:40:43.668Z,22.37
2019-03-08T06:43:13.572Z,23.03
2019-03-08T06:45:42.695Z,22.97
2019-03-08T06:48:11.640Z,23.40
2019-03-08T06:50:40.582Z,23.33
2019-03-08T06:53:10.556Z,22.93
2019-03-08T06:55:39.446Z,22.00
2019-03-08T06:58:08.340Z,23.20
2019-03-08T07:00:40.935Z,22.30
2019-03-08T07:03:10.343Z,22.83
2019-03-08T07:05:39.612Z,22.43
2019-03-08T07:08:27.628Z,21.93
2019-03-08T07:10:56.506Z,23.07
2019-03-08T07:13:25.402Z,23.67
2019-03-08T07:15:54.249Z,23.20
2019-03-08T07:18:23.071Z,25.13
2019-03-08T07:21:03.231Z,22.63
2019-03-08T07:23:51.535Z,22.40
2019-03-08T07:26:58.264Z,22.40
2019-03-08T07:29:52.796Z,22.07
2019-03-08T07:32:32.055Z,23.30
2019-03-08T07:35:18.495Z,24.13
2019-03-08T07:37:56.992Z,23.20
2019-03-08T07:40:51.367Z,23.90
2019-03-08T07:43:38.415Z,23.57
2019-03-08T07:46:25.644Z,23.00
2019-03-08T07:49:08.466Z,22.93
2019-03-08T07:51:59.720Z,23.10
2019-03-08T07:54:52.626Z,23.60
2019-03-08T07:57:39.993Z,22.03
2019-03-08T08:00:31.861Z,23.70
2019-03-08T08:03:15.527Z,22.53
2019-03-08T08:06:02.876Z,22.00
2019-03-08T08:08:40.476Z,23.17
2019-03-08T08:11:18.569Z,23.73
2019-03-08T08:14:21.991Z,23.37
2019-03-08T08:17:11.230Z,23.73
2019-03-08T08:20:16.272Z,24.47
2019-03-08T08:23:04.263Z,23.87
2019-03-08T08:25:42.028Z,22.50
2019-03-08T08:28:29.034Z,23.17
2019-03-08T08:31:16.994Z,24.37
2019-03-08T08:33:51.411Z,25.13
2019-03-08T08:36:36.268Z,22.30
2019-03-08T08:39:29.038Z,22.50
2019-03-08T08:42:29.399Z,22.93
2019-03-08T08:45:07.743Z,21.70
2019-03-08T08:47:58.468Z,23.00
2019-03-08T08:50:35.748Z,22.73
2019-03-08T08:53:17.280Z,23.37
2019-03-08T08:56:11.665Z,22.60
2019-03-08T08:58:56.981Z,22.37
2019-03-08T09:01:34.654Z,22.67
2019-03-08T09:04:11.338Z,22.40
2019-03-08T09:07:11.459Z,22.53
2019-03-08T09:09:52.870Z,22.60
2019-03-08T09:12:35.083Z,23.10
2019-03-08T09:15:23.333Z,21.83
2019-03-08T09:18:29.694Z,22.43
2019-03-08T09:21:17.170Z,23.43
2019-03-08T09:23:51.622Z,25.03
2019-03-08T09:26:46.697Z,22.17
2019-03-08T09:29:41.094Z,24.57
2019-03-08T09:32:31.779Z,22.30
2019-03-08T09:35:19.865Z,23.30
2019-03-08T09:37:57.803Z,23.73
2019-03-08T09:40:46.620Z,21.87
2019-03-08T09:43:44.017Z,22.30
2019-03-08T09:46:19.726Z,22.67
2019-03-08T09:49:00.599Z,23.40
2019-03-08T09:51:36.499Z,22.83
2019-03-08T09:54:27.539Z,21.70
2019-03-08T09:57:18.283Z,22.70
2019-03-08T10:00:02.225Z,21.30
2019-03-08T10:02:45.572Z,23.10
2019-03-08T10:05:37.037Z,21.10
2019-03-08T10:08:18.691Z,23.13
2019-03-08T10:10:54.188Z,22.17
2019-03-08T10:13:41.087Z,22.33
2019-03-08T10:16:18.012Z,21.90
2019-03-08T10:18:52.824Z,22.80
2019-03-08T10:21:39.410Z,22.50
2019-03-08T10:24:16.023Z,22.33
2019-03-08T10:26:53.067Z,23.40
2019-03-08T10:29:29.871Z,23.30
2019-03-08T10:32:22.092Z,22.27
2019-03-08T10:35:09.279Z,21.70
2019-03-08T10:37:54.196Z,22.07
2019-03-08T10:40:45.885Z,22.17
2019-03-08T10:43:34.755Z,22.10
2019-03-08T10:46:20.106Z,21.83
2019-03-08T10:48:59.198Z,22.40
2019-03-08T10:51:50.755Z,22.90
2019-03-08T10:54:28.750Z,22.90
2019-03-08T10:57:26.529Z,23.67
2019-03-08T11:00:09.679Z,24.20
2019-03-08T11:02:56.532Z,22.87
2019-03-08T11:05:43.144Z,23.10
2019-03-08T11:08:31.078Z,22.90
2019-03-08T11:11:37.715Z,21.93
2019-03-08T11:14:24.924Z,22.53
2019-03-08T11:17:11.327Z,22.03
2019-03-08T11:20:14.341Z,22.83
2019-03-08T11:22:52.600Z,22.50
2019-03-08T11:25:49.850Z,23.43
2019-03-08T11:28:37.695Z,22.80
2019-03-08T11:31:24.371Z,22.13
2019-03-08T11:34:02.696Z,21.80
2019-03-08T11:36:50.655Z,22.83
2019-03-08T11:39:38.965Z,21.90
2019-03-08T11:42:37.242Z,22.23
2019-03-08T11:45:28.455Z,22.37
2019-03-08T11:48:17.078Z,22.33
2019-03-08T11:51:05.270Z,21.10
2019-03-08T11:54:05.189Z,21.50
2019-03-08T11:56:58.269Z,22.00
2019-03-08T11:59:38.723Z,21.87
2019-03-08T12:02:23.783Z,22.63
2019-03-08T12:05:10.552Z,21.87
2019-03-08T12:07:47.355Z,22.30
2019-03-08T12:10:27.400Z,21.93
2019-03-08T12:13:03.899Z,21.13
2019-03-08T12:15:40.531Z,21.90
2019-03-08T12:18:21.859Z,20.67
2019-03-08T12:21:06.527Z,21.47
2019-03-08T12:23:53.507Z,21.00
2019-03-08T12:26:47.411Z,20.47
2019-03-08T12:29:53.521Z,20.67
2019-03-08T12:32:29.229Z,21.60
2019-03-08T12:35:31.258Z,21.57
2019-03-08T12:38:17.654Z,21.43
2019-03-08T12:40:55.270Z,21.27
2019-03-08T12:43:35.748Z,21.60
2019-03-08T12:46:22.843Z,20.53
2019-03-08T12:49:10.393Z,20.33
2019-03-08T12:52:04.103Z,20.70
2019-03-08T12:54:52.898Z,20.23
2019-03-08T12:57:45.311Z,20.87
2019-03-08T13:00:39.598Z,19.87
2019-03-08T13:03:32.932Z,20.43
2019-03-08T13:06:23.792Z,20.13
2019-03-08T13:09:01.440Z,20.60
2019-03-08T13:11:33.561Z,21.43
2019-03-08T13:14:00.936Z,20.03
2019-03-08T13:16:30.089Z,21.17
2019-03-08T13:18:58.902Z,20.47
2019-03-08T13:21:27.741Z,21.40
2019-03-08T13:23:56.667Z,21.20
2019-03-08T13:26:25.834Z,21.40
2019-03-08T13:28:54.917Z,22.30
2019-03-08T13:31:23.778Z,21.07
2019-03-08T13:33:52.639Z,21.60
2019-03-08T13:36:21.408Z,20.47
2019-03-08T13:38:50.415Z,21.63
2019-03-08T13:41:19.531Z,21.90
2019-03-08T13:43:48.369Z,21.50
2019-03-08T13:46:17.641Z,21.90
2019-03-08T13:48:46.515Z,21.70
2019-03-08T13:51:15.404Z,21.90
2019-03-08T13:53:44.248Z,21.47
2019-03-08T13:56:13.263Z,21.97
2019-03-08T13:58:42.041Z,21.80
2019-03-08T14:01:10.943Z,21.57
2019-03-08T14:03:39.724Z,22.97
2019-03-08T14:06:08.592Z,21.03
2019-03-08T14:08:37.767Z,21.40
2019-03-08T14:11:06.578Z,22.40
2019-03-08T14:13:35.407Z,21.43
2019-03-08T14:16:04.611Z,22.27
2019-03-08T14:18:33.580Z,21.50
2019-03-08T14:21:02.507Z,21.00
2019-03-08T14:23:31.430Z,22.00
2019-03-08T14:26:00.379Z,21.90
2019-03-08T14:28:29.429Z,22.07
2019-03-08T14:31:09.044Z,21.40
2019-03-08T14:33:39.008Z,22.00
2019-03-08T14:36:08.301Z,21.40
2019-03-08T14:38:37.900Z,21.30
2019-03-08T14:41:11.781Z,21.40
2019-03-08T14:43:52.438Z,21.50
2019-03-08T14:46:33.052Z,21.50
2019-03-08T14:49:01.979Z,21.30
2019-03-08T14:51:30.945Z,21.30
2019-03-08T14:54:00.023Z,20.17
2019-03-08T14:56:31.818Z,20.67
2019-03-08T14:58:59.267Z,20.53
2019-03-08T15:01:28.030Z,20.90
2019-03-08T15:03:57.801Z,21.60
2019-03-08T15:06:28.437Z,22.10
2019-03-08T15:08:57.728Z,23.60
2019-03-08T15:11:27.067Z,22.00
2019-03-08T15:13:57.905Z,20.90
2019-03-08T15:16:26.456Z,21.13
2019-03-08T15:18:55.671Z,20.40
2019-03-08T15:21:24.835Z,21.57
2019-03-08T15:23:54.539Z,18.87
2019-03-08T15:26:24.543Z,17.00
2019-03-08T15:28:53.459Z,14.90
2019-03-08T15:31:22.355Z,13.60
2019-03-08T15:33:51.111Z,11.87
2019-03-08T15:36:20.069Z,11.57
2019-03-08T15:38:57.928Z,11.10
2019-03-08T15:41:21.482Z,10.20
2019-03-08T15:43:51.266Z,11.63
2019-03-08T15:46:26.842Z,11.23
2019-03-08T15:48:55.870Z,14.00
2019-03-08T15:51:25.276Z,13.77
2019-03-08T15:53:54.673Z,15.07
2019-03-08T15:56:23.460Z,13.93
2019-03-08T15:58:52.356Z,13.60
2019-03-08T16:01:21.487Z,11.53
2019-03-08T16:03:53.264Z,13.60
2019-03-08T16:06:22.112Z,14.40
2019-03-08T16:08:51.090Z,14.07
2019-03-08T16:11:19.906Z,14.10
2019-03-08T16:13:48.827Z,14.20
2019-03-08T16:16:18.433Z,13.87
2019-03-08T16:18:48.253Z,14.23
2019-03-08T16:21:17.497Z,13.50
2019-03-08T16:23:47.369Z,13.70
2019-03-08T16:26:16.254Z,13.50
2019-03-08T16:28:45.107Z,13.13
2019-03-08T16:31:25.719Z,14.43
2019-03-08T16:33:56.872Z,14.10
2019-03-08T16:36:31.932Z,13.57
2019-03-08T16:39:12.259Z,13.60
2019-03-08T16:41:58.675Z,14.10
2019-03-08T16:44:37.409Z,14.83
2019-03-08T16:47:23.791Z,14.40
2019-03-08T16:50:26.006Z,14.53
2019-03-08T16:53:07.227Z,13.23
2019-03-08T16:55:55.019Z,14.10
2019-03-08T16:58:41.795Z,13.20
2019-03-08T17:01:21.954Z,12.50
2019-03-08T17:04:04.127Z,13.70
2019-03-08T17:06:45.571Z,13.93
2019-03-08T17:09:33.511Z,13.80
2019-03-08T17:12:20.132Z,15.40
2019-03-08T17:14:59.581Z,14.00
2019-03-08T17:17:56.410Z,15.43
2019-03-08T17:20:34.452Z,17.27
2019-03-08T17:23:37.959Z,14.97
2019-03-08T17:26:44.281Z,14.20
2019-03-08T17:29:18.199Z,14.60
2019-03-08T17:32:12.302Z,15.27
2019-03-08T17:34:59.627Z,14.97
2019-03-08T17:37:47.571Z,14.13
2019-03-08T17:40:34.053Z,14.10
2019-03-08T17:43:19.046Z,13.80
2019-03-08T17:45:59.423Z,14.27
2019-03-08T17:48:47.432Z,14.60
2019-03-08T17:51:42.015Z,14.00
2019-03-08T17:54:24.753Z,14.37
2019-03-08T17:57:09.079Z,13.23
2019-03-08T17:59:53.172Z,13.93
2019-03-08T18:02:33.530Z,13.50
2019-03-08T18:05:25.148Z,13.63
2019-03-08T18:08:11.318Z,13.57
2019-03-08T18:10:58.325Z,13.80
2019-03-08T18:13:49.205Z,14.10
2019-03-08T18:16:23.185Z,14.40
2019-03-08T18:19:11.253Z,14.47
2019-03-08T18:21:46.296Z,13.97
2019-03-08T18:24:34.267Z,14.67
2019-03-08T18:27:14.853Z,13.67
2019-03-08T18:29:53.241Z,13.60
2019-03-08T18:32:28.779Z,13.97
2019-03-08T18:35:19.626Z,13.03
2019-03-08T18:38:06.998Z,14.00
2019-03-08T18:40:47.683Z,14.83
2019-03-08T18:43:36.364Z,14.00
2019-03-08T18:46:19.863Z,13.60
2019-03-08T18:48:55.507Z,13.50
2019-03-08T18:51:31.300Z,12.77
2019-03-08T18:54:10.108Z,14.00
2019-03-08T18:56:57.558Z,14.47
2019-03-08T18:59:54.925Z,13.70
2019-03-08T19:02:36.399Z,13.43
2019-03-08T19:05:33.210Z,13.90
2019-03-08T19:08:09.548Z,14.40
2019-03-08T19:10:52.597Z,29.07
2019-03-08T19:13:39.540Z,13.80
2019-03-08T19:16:28.924Z,13.97
2019-03-08T19:19:14.782Z,12.90
2019-03-08T19:22:07.621Z,12.53
2019-03-08T19:24:44.444Z,13.03
2019-03-08T19:27:21.559Z,13.03
2019-03-08T19:30:08.395Z,12.40
2019-03-08T19:32:56.480Z,14.50
2019-03-08T19:35:43.819Z,11.40
2019-03-08T19:38:37.459Z,13.27
2019-03-08T19:41:25.487Z,13.57
2019-03-08T19:44:13.850Z,15.73
2019-03-08T19:47:07.656Z,16.30
2019-03-08T19:49:46.363Z,16.30
2019-03-08T19:52:30.776Z,14.10
2019-03-08T19:55:22.707Z,14.70
2019-03-08T19:58:13.825Z,16.03
2019-03-08T20:01:04.455Z,15.57
2019-03-08T20:03:39.179Z,13.73
2019-03-08T20:06:27.140Z,14.43
2019-03-08T20:09:07.466Z,14.63
2019-03-08T20:11:58.450Z,14.40
2019-03-08T20:14:42.846Z,14.73
2019-03-08T20:17:40.264Z,15.40
2019-03-08T20:20:26.884Z,14.80
2019-03-08T20:23:11.789Z,15.10
2019-03-08T20:26:06.073Z,15.23
2019-03-08T20:29:00.376Z,17.67
2019-03-08T20:31:40.875Z,15.87
2019-03-08T20:34:25.184Z,15.20
2019-03-08T20:37:06.411Z,15.73
2019-03-08T20:39:43.899Z,14.50
2019-03-08T20:42:21.425Z,14.67
2019-03-08T20:45:02.555Z,14.67
2019-03-08T20:47:32.841Z,15.20
2019-03-08T20:50:02.073Z,23.80
2019-03-08T20:52:30.992Z,15.60
2019-03-08T20:54:59.920Z,15.67
2019-03-08T20:57:28.855Z,14.67
2019-03-08T20:59:57.618Z,14.40
2019-03-08T21:02:26.420Z,14.00
2019-03-08T21:04:55.597Z,15.40
2019-03-08T21:07:24.504Z,15.00
2019-03-08T21:09:53.385Z,14.17
2019-03-08T21:12:22.984Z,14.70
2019-03-08T21:14:53.324Z,14.93
2019-03-08T21:17:23.747Z,14.77
2019-03-08T21:19:52.618Z,14.50
2019-03-08T21:22:22.482Z,14.40
2019-03-08T21:24:51.491Z,14.33
2019-03-08T21:27:21.304Z,15.10
2019-03-08T21:29:50.568Z,13.77
2019-03-08T21:32:19.476Z,14.30
2019-03-08T21:34:48.411Z,14.13
2019-03-08T21:37:17.379Z,14.20
2019-03-08T21:39:46.323Z,14.63
2019-03-08T21:42:15.338Z,14.27
2019-03-08T21:44:44.167Z,15.00
2019-03-08T21:47:13.075Z,15.13
2019-03-08T21:49:41.898Z,14.73
2019-03-08T21:52:11.002Z,15.40
2019-03-08T21:54:40.071Z,15.57
2019-03-08T21:57:09.377Z,15.37
2019-03-08T21:59:40.415Z,15.83
2019-03-08T22:02:09.269Z,15.37
2019-03-08T22:04:48.791Z,16.30
2019-03-08T22:07:17.759Z,14.80
2019-03-08T22:09:57.927Z,14.10
2019-03-08T22:12:26.643Z,15.47
2019-03-08T22:14:55.606Z,15.03
2019-03-08T22:17:24.674Z,14.10
2019-03-08T22:19:54.371Z,15.73
2019-03-08T22:22:23.459Z,15.30
2019-03-08T22:24:53.399Z,17.00
2019-03-08T22:27:22.471Z,16.67
2019-03-08T22:29:51.290Z,16.63
2019-03-08T22:32:20.090Z,16.93
2019-03-08T22:34:49.145Z,16.70
2019-03-08T22:37:18.012Z,15.90
2019-03-08T22:39:47.150Z,16.57
2019-03-08T22:42:16.112Z,17.27
2019-03-08T22:44:45.199Z,16.47
2019-03-08T22:47:14.113Z,15.73
2019-03-08T22:49:42.956Z,16.77
2019-03-08T22:52:11.706Z,17.40
2019-03-08T22:54:41.112Z,17.80
2019-03-08T22:57:10.319Z,15.30
2019-03-08T22:59:39.136Z,18.70
2019-03-08T23:02:09.602Z,17.00
2019-03-08T23:04:38.404Z,16.93
2019-03-08T23:07:07.293Z,15.87
2019-03-08T23:09:36.710Z,16.57
2019-03-08T23:12:05.674Z,16.30
2019-03-08T23:14:34.544Z,16.80
2019-03-08T23:17:03.451Z,16.80
2019-03-08T23:19:32.312Z,16.10
2019-03-08T23:22:01.192Z,17.63
2019-03-08T23:24:30.025Z,15.97
2019-03-08T23:27:11.686Z,17.37
2019-03-08T23:29:44.591Z,17.73
2019-03-08T23:32:20.171Z,16.50
2019-03-08T23:34:49.001Z,19.30
2019-03-08T23:37:18.272Z,16.53
2019-03-08T23:39:47.204Z,18.20
2019-03-08T23:42:16.085Z,17.57
2019-03-08T23:44:45.264Z,16.70
2019-03-08T23:47:14.173Z,17.10
2019-03-08T23:49:42.989Z,17.73
2019-03-08T23:52:12.422Z,18.30
2019-03-08T23:54:41.431Z,18.83
2019-03-08T23:57:10.724Z,19.27
2019-03-08T23:59:39.572Z,16.80
